Time;durP1;ratioP1;P1;durP2;ratioP2;P2;SDS_P1;SDS_P2;PMS_P1;PMS_P2;Temp;Humidity;BMP_temperature;BMP_pressure;BME280_temperature;BME280_humidity;BME280_pressure;Samples;Min_cycle;Max_cycle;Signal;HPM_P1;HPM_P2
2023/06/17 00:01:05;;;;;;;6.15;3.17;;;;;;;;;;5062027;27;98244;-74
2023/06/17 00:03:32;;;;;;;6.50;3.17;;;;;;;;;;5058051;27;98826;-75
2023/06/17 00:05:58;;;;;;;7.00;3.20;;;;;;;;;;5065424;27;99111;-74
2023/06/17 00:08:25;;;;;;;6.57;3.10;;;;;;;;;;5058644;27;98599;-75
2023/06/17 00:10:51;;;;;;;6.93;3.22;;;;;;;;;;5063575;27;100708;-76
2023/06/17 00:13:21;;;;;;;8.43;3.10;;;;;;;;;;5061240;27;97476;-76
2023/06/17 00:15:51;;;;;;;6.78;3.58;;;;;;;;;;5077658;27;100081;-75
2023/06/17 00:18:19;;;;;;;6.68;3.20;;;;;;;;;;5060042;27;99492;-75
2023/06/17 00:20:47;;;;;;;7.15;3.20;;;;;;;;;;5060317;27;99699;-76
2023/06/17 00:23:13;;;;;;;;;;;;;;;;;;5059777;27;101903;-76
2023/06/17 00:25:40;;;;;;;6.93;3.00;;;;;;;;;;5056209;27;122386;-76
2023/06/17 00:28:06;;;;;;;8.18;3.45;;;;;;;;;;5062460;27;98754;-76
2023/06/17 00:30:33;;;;;;;7.93;3.60;;;;;;;;;;5056054;27;101043;-76
2023/06/17 00:32:59;;;;;;;7.50;3.47;;;;;;;;;;5069800;27;98364;-76
2023/06/17 00:35:26;;;;;;;7.45;3.42;;;;;;;;;;5065592;27;98539;-76
2023/06/17 00:37:53;;;;;;;7.03;3.42;;;;;;;;;;5058722;27;98038;-75
2023/06/17 00:40:19;;;;;;;6.93;3.83;;;;;;;;;;5063094;27;98401;-75
2023/06/17 00:42:46;;;;;;;;;;;;;;;;;;5056470;27;101261;-77
2023/06/17 00:45:13;;;;;;;8.25;3.53;;;;;;;;;;5055621;27;118576;-74
2023/06/17 00:47:40;;;;;;;6.00;3.40;;;;;;;;;;5058598;27;98594;-74
2023/06/17 00:50:08;;;;;;;7.82;3.50;;;;;;;;;;5061262;27;99056;-76
2023/06/17 00:52:36;;;;;;;7.10;3.50;;;;;;;;;;5060868;27;98340;-76
2023/06/17 00:55:11;;;;;;;;;;;;;;;;;;5078159;27;98684;-75
2023/06/17 00:57:38;;;;;;;6.80;3.63;;;;;;;;;;5058595;27;105523;-76
2023/06/17 01:00:09;;;;;;;7.88;3.65;;;;;;;;;;5064545;27;98336;-75
2023/06/17 01:02:40;;;;;;;7.40;3.42;;;;;;;;;;5077755;27;98267;-76
2023/06/17 01:05:11;;;;;;;8.00;3.53;;;;;;;;;;5064007;27;98905;-77
2023/06/17 01:07:42;;;;;;;7.10;3.85;;;;;;;;;;5058649;27;98232;-76
2023/06/17 01:10:30;;;;;;;7.15;3.50;;;;;;;;;;5040126;27;100896;-76
2023/06/17 01:13:00;;;;;;;6.80;3.50;;;;;;;;;;5072297;27;98916;-76
2023/06/17 01:15:27;;;;;;;7.10;3.55;;;;;;;;;;5056424;27;99013;-76
2023/06/17 01:17:54;;;;;;;7.50;3.53;;;;;;;;;;5055782;27;101326;-76
2023/06/17 01:20:22;;;;;;;8.20;3.55;;;;;;;;;;5062563;27;100041;-76
2023/06/17 01:22:52;;;;;;;7.85;4.00;;;;;;;;;;5062141;27;100461;-76
2023/06/17 01:25:20;;;;;;;7.97;3.65;;;;;;;;;;5054979;27;100019;-76
2023/06/17 01:27:49;;;;;;;7.95;3.80;;;;;;;;;;5039614;27;97499;-76
2023/06/17 01:30:16;;;;;;;7.55;4.25;;;;;;;;;;5056261;27;100494;-76
2023/06/17 01:32:43;;;;;;;9.25;3.80;;;;;;;;;;5059845;27;99120;-76
2023/06/17 01:35:12;;;;;;;8.63;4.03;;;;;;;;;;5057231;27;101021;-76
2023/06/17 01:37:49;;;;;;;7.68;4.18;;;;;;;;;;5056021;27;104024;-76
2023/06/17 01:40:18;;;;;;;8.07;4.47;;;;;;;;;;5056371;27;98528;-76
2023/06/17 01:42:47;;;;;;;8.82;4.00;;;;;;;;;;5057183;27;98316;-75
2023/06/17 01:45:14;;;;;;;8.43;3.58;;;;;;;;;;5053874;27;101374;-77
2023/06/17 01:47:41;;;;;;;;;;;;;;;;;;5075558;27;98372;-76
2023/06/17 01:50:08;;;;;;;7.22;4.13;;;;;;;;;;5062285;27;98565;-76
2023/06/17 01:52:35;;;;;;;7.53;3.90;;;;;;;;;;5066499;27;98243;-75
2023/06/17 01:55:03;;;;;;;8.13;3.83;;;;;;;;;;5058169;27;98616;-75
2023/06/17 01:57:30;;;;;;;8.20;3.80;;;;;;;;;;5054066;27;101627;-75
2023/06/17 01:59:57;;;;;;;7.93;3.92;;;;;;;;;;5075726;27;98933;-75
2023/06/17 02:02:24;;;;;;;7.78;3.83;;;;;;;;;;5059848;27;101928;-75
2023/06/17 02:04:51;;;;;;;8.63;3.80;;;;;;;;;;5062690;27;101426;-75
2023/06/17 02:07:18;;;;;;;6.93;3.50;;;;;;;;;;5062287;27;98322;-76
2023/06/17 02:09:45;;;;;;;7.40;3.60;;;;;;;;;;5064286;27;99275;-75
2023/06/17 02:12:12;;;;;;;9.30;4.15;;;;;;;;;;5065019;27;101438;-75
2023/06/17 02:14:39;;;;;;;8.80;4.07;;;;;;;;;;5055864;27;98650;-75
2023/06/17 02:17:08;;;;;;;7.32;3.92;;;;;;;;;;5059722;27;98458;-75
2023/06/17 02:19:35;;;;;;;8.80;3.80;;;;;;;;;;5055486;27;98476;-76
2023/06/17 02:22:02;;;;;;;8.60;4.65;;;;;;;;;;5068071;27;98781;-77
2023/06/17 02:24:28;;;;;;;9.32;4.10;;;;;;;;;;5066626;27;102342;-75
2023/06/17 02:26:56;;;;;;;7.57;4.22;;;;;;;;;;5065379;27;100025;-76
2023/06/17 02:29:22;;;;;;;9.07;4.43;;;;;;;;;;5037704;27;101527;-76
2023/06/17 02:31:49;;;;;;;7.80;4.05;;;;;;;;;;5048901;27;101152;-76
2023/06/17 02:34:16;;;;;;;7.47;4.05;;;;;;;;;;5055138;27;99162;-75
2023/06/17 02:36:43;;;;;;;8.23;4.40;;;;;;;;;;5056658;27;101535;-75
2023/06/17 02:39:10;;;;;;;7.68;4.20;;;;;;;;;;5057565;27;100900;-75
2023/06/17 02:41:37;;;;;;;7.85;4.30;;;;;;;;;;5054980;27;105407;-75
2023/06/17 02:44:03;;;;;;;8.00;4.28;;;;;;;;;;5054407;27;100919;-75
2023/06/17 02:46:30;;;;;;;9.13;5.00;;;;;;;;;;5062593;27;98444;-75
2023/06/17 02:48:57;;;;;;;7.80;3.90;;;;;;;;;;5054161;27;100396;-75
2023/06/17 02:51:24;;;;;;;9.20;4.38;;;;;;;;;;5058667;27;101304;-76
2023/06/17 02:53:50;;;;;;;7.97;4.20;;;;;;;;;;5046959;27;98336;-76
2023/06/17 02:56:20;;;;;;;7.90;4.40;;;;;;;;;;5064461;27;101422;-76
2023/06/17 02:58:47;;;;;;;8.73;5.10;;;;;;;;;;5071657;27;100651;-75
2023/06/17 03:01:14;;;;;;;8.07;4.18;;;;;;;;;;5058504;27;98228;-76
2023/06/17 03:03:43;;;;;;;8.30;4.50;;;;;;;;;;5060593;27;99967;-75
2023/06/17 03:06:10;;;;;;;8.82;4.53;;;;;;;;;;5077812;27;97814;-76
2023/06/17 03:08:40;;;;;;;7.75;4.40;;;;;;;;;;5059885;27;98350;-76
2023/06/17 03:11:07;;;;;;;8.00;4.07;;;;;;;;;;5059266;27;99151;-76
2023/06/17 03:13:35;;;;;;;8.20;4.38;;;;;;;;;;5069083;27;99006;-76
2023/06/17 03:16:06;;;;;;;8.80;4.63;;;;;;;;;;5071684;27;101033;-77
2023/06/17 03:18:33;;;;;;;8.07;4.50;;;;;;;;;;5056916;27;101896;-75
2023/06/17 03:21:00;;;;;;;8.68;4.63;;;;;;;;;;5074521;27;98565;-76
2023/06/17 03:23:26;;;;;;;8.15;4.40;;;;;;;;;;5074896;27;100798;-77
2023/06/17 03:25:53;;;;;;;8.65;4.60;;;;;;;;;;5057673;27;98181;-76
2023/06/17 03:28:20;;;;;;;8.77;4.55;;;;;;;;;;5072499;27;101343;-75
2023/06/17 03:30:47;;;;;;;8.35;4.47;;;;;;;;;;5074555;27;100496;-74
2023/06/17 03:33:15;;;;;;;7.43;3.97;;;;;;;;;;5067382;27;98437;-74
2023/06/17 03:35:42;;;;;;;8.90;5.00;;;;;;;;;;5071899;27;99754;-75
2023/06/17 03:38:09;;;;;;;7.88;4.18;;;;;;;;;;5056285;27;101921;-75
2023/06/17 03:40:36;;;;;;;8.88;4.30;;;;;;;;;;5041008;27;98764;-74
2023/06/17 03:43:03;;;;;;;8.70;4.80;;;;;;;;;;5073175;27;98894;-75
2023/06/17 03:45:30;;;;;;;8.52;4.72;;;;;;;;;;5057161;27;98451;-75
2023/06/17 03:47:59;;;;;;;9.52;4.50;;;;;;;;;;5076828;27;100794;-76
2023/06/17 03:50:26;;;;;;;8.43;5.18;;;;;;;;;;5068171;27;101734;-75
2023/06/17 03:52:53;;;;;;;8.15;4.65;;;;;;;;;;5075790;27;98292;-75
2023/06/17 03:55:20;;;;;;;9.07;4.60;;;;;;;;;;5054105;27;100916;-75
2023/06/17 03:57:46;;;;;;;8.23;4.50;;;;;;;;;;5059722;27;101554;-74
2023/06/17 04:00:15;;;;;;;9.27;4.80;;;;;;;;;;5056385;27;98329;-76
2023/06/17 04:02:47;;;;;;;10.05;4.93;;;;;;;;;;5061528;27;98998;-75
2023/06/17 04:05:32;;;;;;;9.43;4.95;;;;;;;;;;5059867;27;101837;-75
2023/06/17 04:08:02;;;;;;;8.80;4.40;;;;;;;;;;5073588;27;101663;-75
2023/06/17 04:10:29;;;;;;;8.38;4.30;;;;;;;;;;5051312;27;100670;-75
2023/06/17 04:12:56;;;;;;;8.05;4.20;;;;;;;;;;5063205;27;98315;-75
2023/06/17 04:15:24;;;;;;;9.23;4.95;;;;;;;;;;5056892;27;100175;-76
2023/06/17 04:17:51;;;;;;;9.77;4.47;;;;;;;;;;5069774;27;100370;-76
2023/06/17 04:20:20;;;;;;;7.82;4.32;;;;;;;;;;5045514;27;97848;-76
2023/06/17 04:22:48;;;;;;;9.52;4.30;;;;;;;;;;5056299;27;100116;-77
2023/06/17 04:25:20;;;;;;;8.57;5.35;;;;;;;;;;5055923;27;101758;-77
2023/06/17 04:27:53;;;;;;;9.43;4.32;;;;;;;;;;5063024;27;99248;-75
2023/06/17 04:30:21;;;;;;;8.15;4.40;;;;;;;;;;5076667;27;101668;-76
2023/06/17 04:32:50;;;;;;;8.70;4.45;;;;;;;;;;5069848;27;98676;-77
2023/06/17 04:35:18;;;;;;;9.25;5.32;;;;;;;;;;5073100;27;100765;-77
2023/06/17 04:37:53;;;;;;;8.50;5.28;;;;;;;;;;5046588;27;100214;-77
2023/06/17 04:40:21;;;;;;;10.30;4.60;;;;;;;;;;5077022;27;98387;-76
2023/06/17 04:42:49;;;;;;;7.32;4.28;;;;;;;;;;5072834;27;101486;-77
2023/06/17 04:45:17;;;;;;;8.20;4.95;;;;;;;;;;5055846;27;100561;-77
2023/06/17 04:47:47;;;;;;;8.00;4.30;;;;;;;;;;5056003;27;98291;-76
2023/06/17 04:50:16;;;;;;;8.60;5.00;;;;;;;;;;5058712;27;101349;-76
2023/06/17 04:52:47;;;;;;;8.18;4.32;;;;;;;;;;5065323;27;99271;-76
2023/06/17 04:55:18;;;;;;;9.45;4.53;;;;;;;;;;5059145;27;101858;-76
2023/06/17 04:57:45;;;;;;;8.52;4.25;;;;;;;;;;5058060;27;100968;-76
2023/06/17 05:00:14;;;;;;;8.43;4.43;;;;;;;;;;5055904;27;98485;-74
2023/06/17 05:02:42;;;;;;;8.93;4.43;;;;;;;;;;5055218;27;101300;-76
2023/06/17 05:05:09;;;;;;;9.13;4.88;;;;;;;;;;5054808;27;101384;-76
2023/06/17 05:07:35;;;;;;;9.95;5.32;;;;;;;;;;5070216;27;99788;-76
2023/06/17 05:10:03;;;;;;;;;;;;;;;;;;5076641;27;100887;-76
2023/06/17 05:12:31;;;;;;;8.40;4.53;;;;;;;;;;5074184;27;101655;-77
2023/06/17 05:14:58;;;;;;;8.57;4.38;;;;;;;;;;5073087;27;101091;-76
2023/06/17 05:17:24;;;;;;;9.93;4.90;;;;;;;;;;5056658;27;102459;-76
2023/06/17 05:19:51;;;;;;;8.73;4.38;;;;;;;;;;5057945;27;98111;-76
2023/06/17 05:22:18;;;;;;;11.23;5.10;;;;;;;;;;5058653;27;101243;-76
2023/06/17 05:24:44;;;;;;;8.18;4.53;;;;;;;;;;5075274;27;101020;-76
2023/06/17 05:27:13;;;;;;;;;;;;;;;;;;5058210;27;98138;-77
2023/06/17 05:29:40;;;;;;;8.68;4.78;;;;;;;;;;5038862;27;121438;-76
2023/06/17 05:32:08;;;;;;;10.55;4.72;;;;;;;;;;5068051;27;100924;-77
2023/06/17 05:34:34;;;;;;;8.10;4.32;;;;;;;;;;5066608;27;97975;-76
2023/06/17 05:37:01;;;;;;;9.75;5.25;;;;;;;;;;5061471;27;101545;-76
2023/06/17 05:39:27;;;;;;;7.90;4.55;;;;;;;;;;5074694;27;98595;-76
2023/06/17 05:41:54;;;;;;;8.88;4.88;;;;;;;;;;5056996;27;101543;-75
2023/06/17 05:44:22;;;;;;;8.48;4.50;;;;;;;;;;5074562;27;101748;-76
2023/06/17 05:46:50;;;;;;;8.88;4.45;;;;;;;;;;5058247;27;98231;-75
2023/06/17 05:49:17;;;;;;;8.38;4.55;;;;;;;;;;5072303;27;101169;-76
2023/06/17 05:51:43;;;;;;;8.88;4.45;;;;;;;;;;5059033;27;100909;-75
2023/06/17 05:54:10;;;;;;;8.60;4.30;;;;;;;;;;5063610;27;98622;-75
2023/06/17 05:56:37;;;;;;;8.18;4.38;;;;;;;;;;5057205;27;100947;-76
2023/06/17 05:59:03;;;;;;;11.52;4.70;;;;;;;;;;5055242;27;97577;-75
2023/06/17 06:01:36;;;;;;;9.10;4.63;;;;;;;;;;5056652;27;103721;-76
2023/06/17 06:04:03;;;;;;;7.88;4.32;;;;;;;;;;5076202;27;99002;-76
2023/06/17 06:06:29;;;;;;;7.97;4.75;;;;;;;;;;5073919;27;99250;-76
2023/06/17 06:09:00;;;;;;;8.57;4.50;;;;;;;;;;5076735;27;100616;-76
2023/06/17 06:11:27;;;;;;;8.88;4.43;;;;;;;;;;5060401;27;98753;-77
2023/06/17 06:13:54;;;;;;;9.00;4.43;;;;;;;;;;5053993;27;98661;-76
2023/06/17 06:16:21;;;;;;;9.25;4.55;;;;;;;;;;5064006;27;100965;-76
2023/06/17 06:18:48;;;;;;;8.07;4.28;;;;;;;;;;5057303;27;98246;-76
2023/06/17 06:21:14;;;;;;;10.40;4.95;;;;;;;;;;5059864;27;100680;-76
2023/06/17 06:23:41;;;;;;;8.07;4.32;;;;;;;;;;5054831;27;100832;-75
2023/06/17 06:26:08;;;;;;;7.55;4.22;;;;;;;;;;5036690;27;98364;-76
2023/06/17 06:28:35;;;;;;;8.50;4.82;;;;;;;;;;5055786;27;98351;-76
2023/06/17 06:31:01;;;;;;;7.28;4.03;;;;;;;;;;5053537;27;102277;-75
2023/06/17 06:33:28;;;;;;;8.82;4.35;;;;;;;;;;5061661;27;99247;-76
2023/06/17 06:35:55;;;;;;;7.20;4.05;;;;;;;;;;5068289;27;101774;-76
2023/06/17 06:38:22;;;;;;;7.63;4.28;;;;;;;;;;5071796;27;101331;-75
2023/06/17 06:40:49;;;;;;;;;;;;;;;;;;5074146;27;100728;-75
2023/06/17 06:43:16;;;;;;;9.32;4.40;;;;;;;;;;5058379;27;99139;-76
2023/06/17 06:45:49;;;;;;;7.50;4.03;;;;;;;;;;5057728;27;98829;-76
2023/06/17 06:48:16;;;;;;;7.32;3.90;;;;;;;;;;5041743;27;101100;-75
2023/06/17 06:50:43;;;;;;;9.02;4.00;;;;;;;;;;5040128;27;101308;-76
2023/06/17 06:53:10;;;;;;;8.52;4.20;;;;;;;;;;5070353;27;98469;-76
2023/06/17 06:55:36;;;;;;;7.70;4.22;;;;;;;;;;5059508;27;105549;-77
2023/06/17 06:58:03;;;;;;;8.10;4.38;;;;;;;;;;5076309;27;101320;-76
2023/06/17 07:00:30;;;;;;;8.23;4.10;;;;;;;;;;5081279;27;98357;-76
2023/06/17 07:02:57;;;;;;;;;;;;;;;;;;5060852;27;101066;-76
2023/06/17 07:05:24;;;;;;;8.50;4.07;;;;;;;;;;5077434;27;98319;-76
2023/06/17 07:07:56;;;;;;;7.28;3.92;;;;;;;;;;5078243;27;101071;-76
2023/06/17 07:10:23;;;;;;;8.50;4.28;;;;;;;;;;5072625;27;101418;-76
2023/06/17 07:12:50;;;;;;;9.82;4.00;;;;;;;;;;5070407;27;97948;-75
2023/06/17 07:15:17;;;;;;;9.68;4.03;;;;;;;;;;5055514;27;100147;-75
2023/06/17 07:17:45;;;;;;;7.28;3.67;;;;;;;;;;5059773;27;102926;-77
2023/06/17 07:20:13;;;;;;;8.18;4.25;;;;;;;;;;5048613;27;99350;-75
2023/06/17 07:22:39;;;;;;;9.07;4.18;;;;;;;;;;5062604;27;99169;-76
2023/06/17 07:25:06;;;;;;;9.25;4.03;;;;;;;;;;5064941;27;98385;-75
2023/06/17 07:27:33;;;;;;;8.18;3.83;;;;;;;;;;5073753;27;99167;-76
2023/06/17 07:30:00;;;;;;;7.63;4.20;;;;;;;;;;5060119;27;98712;-76
2023/06/17 07:32:27;;;;;;;7.60;3.95;;;;;;;;;;5056735;27;98664;-76
2023/06/17 07:34:54;;;;;;;;;;;;;;;;;;5048946;27;100190;-77
2023/06/17 07:37:23;;;;;;;9.02;4.00;;;;;;;;;;5059599;27;115769;-76
2023/06/17 07:39:50;;;;;;;8.80;4.18;;;;;;;;;;5078440;27;98218;-76
2023/06/17 07:42:16;;;;;;;8.52;3.72;;;;;;;;;;5063811;27;99628;-76
2023/06/17 07:44:43;;;;;;;8.48;3.90;;;;;;;;;;5056081;27;99186;-75
2023/06/17 07:47:10;;;;;;;9.07;3.83;;;;;;;;;;5075080;27;99804;-75
2023/06/17 07:49:37;;;;;;;8.20;3.95;;;;;;;;;;5069704;27;103172;-75
2023/06/17 07:52:03;;;;;;;9.00;3.90;;;;;;;;;;5071696;27;98514;-75
2023/06/17 07:54:30;;;;;;;7.68;3.95;;;;;;;;;;5062153;27;98263;-74
2023/06/17 07:56:57;;;;;;;12.27;4.20;;;;;;;;;;5065832;27;99123;-74
2023/06/17 07:59:23;;;;;;;7.70;3.90;;;;;;;;;;5057691;27;98196;-75
2023/06/17 08:01:50;;;;;;;7.32;4.03;;;;;;;;;;5060340;27;98496;-75
2023/06/17 08:04:17;;;;;;;8.15;4.10;;;;;;;;;;5061354;27;99270;-75
2023/06/17 08:06:44;;;;;;;8.68;3.90;;;;;;;;;;5068038;27;98776;-75
2023/06/17 08:09:10;;;;;;;9.23;4.10;;;;;;;;;;5059567;27;99514;-75
2023/06/17 08:11:37;;;;;;;8.18;4.28;;;;;;;;;;5057448;27;98432;-75
2023/06/17 08:14:03;;;;;;;11.57;4.50;;;;;;;;;;5056300;27;98302;-76
2023/06/17 08:16:30;;;;;;;9.45;4.22;;;;;;;;;;5055265;27;101338;-75
2023/06/17 08:18:56;;;;;;;8.85;4.20;;;;;;;;;;5043810;27;98644;-74
2023/06/17 08:21:23;;;;;;;8.98;3.90;;;;;;;;;;5057156;27;98769;-76
2023/06/17 08:23:50;;;;;;;9.50;4.18;;;;;;;;;;5065503;27;100953;-75
2023/06/17 08:26:16;;;;;;;9.60;3.88;;;;;;;;;;5074174;27;97900;-76
2023/06/17 08:28:43;;;;;;;7.43;3.92;;;;;;;;;;5070053;27;99197;-76
2023/06/17 08:31:10;;;;;;;8.25;4.13;;;;;;;;;;5060026;27;98534;-76
2023/06/17 08:33:37;;;;;;;7.55;3.97;;;;;;;;;;5069075;27;104685;-75
2023/06/17 08:36:03;;;;;;;8.70;4.03;;;;;;;;;;5064678;27;99780;-75
2023/06/17 08:38:30;;;;;;;7.75;3.88;;;;;;;;;;5058655;27;98632;-76
2023/06/17 08:40:56;;;;;;;8.20;4.15;;;;;;;;;;5068945;27;98424;-76
2023/06/17 08:43:25;;;;;;;8.93;3.85;;;;;;;;;;5070414;27;98986;-76
2023/06/17 08:45:53;;;;;;;8.57;4.20;;;;;;;;;;5055020;27;98447;-75
2023/06/17 08:48:20;;;;;;;8.55;4.00;;;;;;;;;;5073654;27;99356;-76
2023/06/17 08:50:48;;;;;;;7.25;3.80;;;;;;;;;;5060789;27;97791;-76
2023/06/17 08:53:15;;;;;;;8.82;4.10;;;;;;;;;;5073012;27;100493;-76
2023/06/17 08:55:42;;;;;;;7.65;4.18;;;;;;;;;;5070617;27;99413;-76
2023/06/17 08:58:09;;;;;;;8.30;3.80;;;;;;;;;;5061441;27;100767;-76
2023/06/17 09:00:36;;;;;;;7.40;3.97;;;;;;;;;;5066314;27;100978;-76
2023/06/17 09:03:04;;;;;;;8.18;3.95;;;;;;;;;;5055937;27;101568;-75
2023/06/17 09:05:31;;;;;;;8.48;3.97;;;;;;;;;;5056351;27;100592;-76
2023/06/17 09:07:57;;;;;;;9.70;4.32;;;;;;;;;;5070961;27;98466;-77
2023/06/17 09:10:24;;;;;;;9.07;4.30;;;;;;;;;;5063439;27;99098;-75
2023/06/17 09:12:51;;;;;;;9.32;4.90;;;;;;;;;;5057670;27;100034;-76
2023/06/17 09:15:17;;;;;;;10.65;3.70;;;;;;;;;;5055464;27;98009;-76
2023/06/17 09:17:45;;;;;;;8.43;4.35;;;;;;;;;;5066061;27;98253;-77
2023/06/17 09:20:11;;;;;;;;;;;;;;;;;;5059388;27;98830;-77
2023/06/17 09:22:39;;;;;;;8.18;3.95;;;;;;;;;;5050200;27;102171;-77
2023/06/17 09:25:14;;;;;;;8.48;3.88;;;;;;;;;;5059388;27;98743;-77
2023/06/17 09:27:48;;;;;;;8.27;3.90;;;;;;;;;;5068061;27;103079;-77
2023/06/17 09:30:42;;;;;;;8.45;3.80;;;;;;;;;;5074781;27;98694;-73
2023/06/17 09:33:21;;;;;;;8.45;3.85;;;;;;;;;;5071167;27;98096;-76
2023/06/17 09:35:58;;;;;;;12.32;4.15;;;;;;;;;;5071201;27;104339;-75
2023/06/17 09:38:25;;;;;;;7.90;4.18;;;;;;;;;;5056425;27;98599;-76
2023/06/17 09:40:52;;;;;;;7.72;3.97;;;;;;;;;;5053574;27;100955;-76
2023/06/17 09:43:23;;;;;;;8.45;3.58;;;;;;;;;;5066761;27;99214;-77
2023/06/17 09:45:59;;;;;;;8.80;3.88;;;;;;;;;;5071616;27;98102;-76
2023/06/17 09:48:30;;;;;;;6.40;3.40;;;;;;;;;;5055288;27;99314;-76
2023/06/17 09:50:57;;;;;;;10.00;4.07;;;;;;;;;;5057718;27;99099;-76
2023/06/17 09:53:27;;;;;;;8.00;3.78;;;;;;;;;;5070791;27;98289;-77
2023/06/17 09:55:57;;;;;;;8.70;3.55;;;;;;;;;;5059449;27;100583;-77
2023/06/17 09:58:26;;;;;;;8.95;3.83;;;;;;;;;;5069964;27;98379;-76
2023/06/17 10:00:52;;;;;;;6.35;3.40;;;;;;;;;;5058626;27;98417;-76
2023/06/17 10:03:20;;;;;;;7.32;3.67;;;;;;;;;;5059442;27;98779;-76
2023/06/17 10:05:52;;;;;;;8.50;3.83;;;;;;;;;;5055416;27;98165;-75
2023/06/17 10:08:19;;;;;;;7.78;3.50;;;;;;;;;;5064940;27;98091;-76
2023/06/17 10:10:45;;;;;;;;;;;;;;;;;;5053444;27;101919;-75
2023/06/17 10:13:12;;;;;;;7.85;3.65;;;;;;;;;;5069579;27;101997;-76
2023/06/17 10:15:39;;;;;;;6.65;3.35;;;;;;;;;;5075137;27;99681;-76
2023/06/17 10:18:07;;;;;;;7.20;3.45;;;;;;;;;;5065551;27;98260;-78
2023/06/17 10:20:35;;;;;;;7.65;3.67;;;;;;;;;;5055462;27;99057;-76
2023/06/17 10:23:02;;;;;;;6.72;3.40;;;;;;;;;;5060412;27;100750;-76
2023/06/17 10:25:29;;;;;;;23.52;3.72;;;;;;;;;;5071926;27;98178;-76
2023/06/17 10:27:56;;;;;;;34.45;5.25;;;;;;;;;;5068888;27;98484;-75
2023/06/17 10:30:26;;;;;;;42.00;5.40;;;;;;;;;;5060013;27;98085;-76
2023/06/17 10:33:01;;;;;;;19.02;3.97;;;;;;;;;;5053816;27;98432;-75
2023/06/17 10:35:40;;;;;;;25.95;4.47;;;;;;;;;;5063298;27;98846;-75
2023/06/17 10:38:07;;;;;;;14.88;3.58;;;;;;;;;;5070096;27;99820;-77
2023/06/17 10:40:39;;;;;;;18.15;3.78;;;;;;;;;;5070558;27;99796;-76
2023/06/17 10:43:06;;;;;;;32.78;4.72;;;;;;;;;;5062052;27;99261;-76
2023/06/17 10:45:44;;;;;;;40.72;5.72;;;;;;;;;;5073593;27;98637;-76
2023/06/17 10:48:20;;;;;;;31.50;4.82;;;;;;;;;;5071255;27;99751;-78
2023/06/17 10:50:57;;;;;;;22.42;4.03;;;;;;;;;;5064082;27;99185;-77
2023/06/17 10:53:30;;;;;;;11.77;3.15;;;;;;;;;;5063683;27;98147;-77
2023/06/17 10:55:58;;;;;;;15.48;3.03;;;;;;;;;;5055572;27;98443;-78
2023/06/17 10:58:31;;;;;;;8.27;2.70;;;;;;;;;;5064033;27;98628;-77
2023/06/17 11:00:59;;;;;;;8.48;3.03;;;;;;;;;;5072681;27;98352;-77
2023/06/17 11:03:26;;;;;;;7.50;2.85;;;;;;;;;;5051715;27;99467;-77
2023/06/17 11:05:53;;;;;;;7.72;2.97;;;;;;;;;;5070586;27;98440;-77
2023/06/17 11:08:20;;;;;;;6.88;2.45;;;;;;;;;;5061498;27;98377;-77
2023/06/17 11:10:47;;;;;;;7.72;2.60;;;;;;;;;;5053737;27;99797;-78
2023/06/17 11:13:13;;;;;;;6.60;2.72;;;;;;;;;;5053253;27;98119;-77
2023/06/17 11:15:40;;;;;;;5.43;2.30;;;;;;;;;;5053607;27;101003;-77
2023/06/17 11:18:07;;;;;;;7.70;2.58;;;;;;;;;;5053071;27;101749;-78
2023/06/17 11:20:37;;;;;;;5.07;2.38;;;;;;;;;;5056414;27;97411;-77
2023/06/17 11:23:04;;;;;;;5.22;2.40;;;;;;;;;;5058013;27;98539;-77
2023/06/17 11:25:31;;;;;;;5.72;2.50;;;;;;;;;;5053728;27;102532;-77
2023/06/17 11:28:11;;;;;;;6.57;2.33;;;;;;;;;;5076813;27;107365;-77
2023/06/17 11:30:39;;;;;;;7.05;2.70;;;;;;;;;;5074756;27;98790;-77
2023/06/17 11:33:06;;;;;;;6.00;2.90;;;;;;;;;;5069978;27;98366;-77
2023/06/17 11:35:33;;;;;;;5.43;2.50;;;;;;;;;;5074291;27;98262;-77
2023/06/17 11:38:00;;;;;;;5.80;2.60;;;;;;;;;;5069794;27;98805;-78
2023/06/17 11:40:27;;;;;;;7.03;2.67;;;;;;;;;;5046056;27;98552;-78
2023/06/17 11:42:55;;;;;;;7.82;2.85;;;;;;;;;;5058227;27;100449;-77
2023/06/17 11:45:22;;;;;;;6.15;2.70;;;;;;;;;;5067099;27;98149;-77
2023/06/17 11:47:49;;;;;;;8.35;2.53;;;;;;;;;;5067456;27;98309;-77
2023/06/17 11:50:16;;;;;;;8.18;2.80;;;;;;;;;;5072852;27;101443;-77
2023/06/17 11:52:52;;;;;;;6.43;2.85;;;;;;;;;;5058897;27;104049;-77
2023/06/17 11:55:18;;;;;;;5.05;2.60;;;;;;;;;;5062848;27;100109;-77
2023/06/17 11:57:45;;;;;;;7.43;2.70;;;;;;;;;;5065355;27;101270;-78
2023/06/17 12:00:12;;;;;;;6.88;3.00;;;;;;;;;;5076752;27;98462;-78
2023/06/17 12:02:38;;;;;;;6.13;2.90;;;;;;;;;;5067169;27;98574;-77
2023/06/17 12:05:05;;;;;;;7.43;3.00;;;;;;;;;;5061285;27;98867;-78
2023/06/17 12:07:42;;;;;;;7.45;3.33;;;;;;;;;;5060902;27;101069;-78
2023/06/17 12:10:11;;;;;;;8.05;2.88;;;;;;;;;;5053782;27;100760;-77
2023/06/17 12:12:38;;;;;;;6.10;2.88;;;;;;;;;;5066836;27;98475;-78
2023/06/17 12:15:04;;;;;;;;;;;;;;;;;;5067723;27;98658;-77
2023/06/17 12:17:46;;;;;;;7.95;3.05;;;;;;;;;;5056284;27;104344;-78
2023/06/17 12:20:17;;;;;;;7.57;2.95;;;;;;;;;;5057869;27;98279;-78
2023/06/17 12:22:44;;;;;;;6.88;3.13;;;;;;;;;;5062015;27;98636;-78
2023/06/17 12:25:11;;;;;;;5.68;2.88;;;;;;;;;;5055902;27;101441;-80
2023/06/17 12:27:38;;;;;;;5.68;2.92;;;;;;;;;;5073799;27;98744;-78
2023/06/17 12:30:05;;;;;;;6.95;3.03;;;;;;;;;;5078444;27;98733;-77
2023/06/17 12:32:32;;;;;;;6.85;3.20;;;;;;;;;;5060380;27;98713;-77
2023/06/17 12:34:59;;;;;;;6.93;3.13;;;;;;;;;;5056722;27;101163;-78
2023/06/17 12:37:27;;;;;;;6.40;3.10;;;;;;;;;;5044331;27;101403;-78
2023/06/17 12:40:03;;;;;;;7.25;2.95;;;;;;;;;;5071902;27;98113;-78
2023/06/17 12:42:29;;;;;;;6.93;3.10;;;;;;;;;;5076694;27;101125;-78
2023/06/17 12:44:56;;;;;;;6.18;2.97;;;;;;;;;;5077151;27;98737;-78
2023/06/17 12:47:23;;;;;;;7.10;3.10;;;;;;;;;;5077816;27;98447;-78
2023/06/17 12:49:50;;;;;;;6.25;3.22;;;;;;;;;;5075991;27;98255;-79
2023/06/17 12:52:17;;;;;;;7.15;2.90;;;;;;;;;;5068044;27;98682;-76
2023/06/17 12:54:43;;;;;;;7.20;3.10;;;;;;;;;;5071754;27;98495;-77
2023/06/17 12:57:10;;;;;;;5.82;2.67;;;;;;;;;;5070419;27;99583;-79
2023/06/17 12:59:40;;;;;;;6.43;3.20;;;;;;;;;;5077352;27;97781;-78
2023/06/17 13:02:06;;;;;;;6.35;2.78;;;;;;;;;;5078667;27;98636;-79
2023/06/17 13:04:33;;;;;;;8.73;2.70;;;;;;;;;;5076428;27;100816;-80
2023/06/17 13:07:00;;;;;;;9.13;2.88;;;;;;;;;;5057367;27;98964;-78
2023/06/17 13:09:26;;;;;;;7.65;3.30;;;;;;;;;;5077782;27;99892;-78
2023/06/17 13:11:53;;;;;;;7.78;3.10;;;;;;;;;;5068382;27;98911;-78
2023/06/17 13:14:20;;;;;;;7.47;3.50;;;;;;;;;;5055946;27;101117;-77
2023/06/17 13:16:48;;;;;;;7.07;3.47;;;;;;;;;;5057331;27;99163;-78
2023/06/17 13:19:16;;;;;;;7.85;3.50;;;;;;;;;;5060548;27;98168;-79
2023/06/17 13:21:43;;;;;;;7.53;3.60;;;;;;;;;;5057350;27;98659;-77
2023/06/17 13:24:09;;;;;;;7.68;3.72;;;;;;;;;;5072029;27;98135;-77
2023/06/17 13:26:36;;;;;;;7.47;3.92;;;;;;;;;;5076714;27;98409;-79
2023/06/17 13:29:04;;;;;;;8.27;3.53;;;;;;;;;;5077497;27;98471;-77
2023/06/17 13:31:30;;;;;;;;;;;;;;;;;;5056497;27;101899;-78
2023/06/17 13:33:57;;;;;;;8.23;3.60;;;;;;;;;;5076452;27;98298;-78
2023/06/17 13:36:24;;;;;;;7.20;3.63;;;;;;;;;;5064224;27;101351;-77
2023/06/17 13:38:51;;;;;;;6.40;3.53;;;;;;;;;;5057160;27;98360;-76
2023/06/17 13:41:17;;;;;;;9.15;3.80;;;;;;;;;;5056597;27;98562;-75
2023/06/17 13:43:44;;;;;;;6.90;3.53;;;;;;;;;;5055324;27;98845;-77
2023/06/17 13:46:11;;;;;;;7.25;3.40;;;;;;;;;;5067507;27;98110;-77
2023/06/17 13:48:38;;;;;;;6.57;3.30;;;;;;;;;;5057316;27;99182;-76
2023/06/17 13:51:04;;;;;;;6.45;3.40;;;;;;;;;;5037786;27;101280;-76
2023/06/17 13:53:31;;;;;;;6.38;3.30;;;;;;;;;;5057780;27;105654;-77
2023/06/17 13:55:58;;;;;;;8.95;3.50;;;;;;;;;;5074874;27;98982;-77
2023/06/17 13:58:24;;;;;;;7.65;3.80;;;;;;;;;;5077181;27;98548;-77
2023/06/17 14:00:51;;;;;;;;;;;;;;;;;;5065452;27;98881;-76
2023/06/17 14:03:18;;;;;;;7.57;3.70;;;;;;;;;;5056405;27;115019;-76
2023/06/17 14:05:46;;;;;;;7.72;3.92;;;;;;;;;;5039107;27;98963;-77
2023/06/17 14:08:13;;;;;;;;;;;;;;;;;;5068135;27;101135;-76
2023/06/17 14:10:40;;;;;;;6.85;3.65;;;;;;;;;;5076967;27;102442;-77
2023/06/17 14:13:06;;;;;;;;;;;;;;;;;;5077931;27;97402;-77
2023/06/17 14:15:33;;;;;;;7.40;3.97;;;;;;;;;;5061318;27;114792;-77
2023/06/17 14:18:00;;;;;;;6.70;4.05;;;;;;;;;;5053667;27;98698;-76
2023/06/17 14:20:27;;;;;;;7.18;4.03;;;;;;;;;;5056428;27;99322;-77
2023/06/17 14:22:56;;;;;;;6.65;3.80;;;;;;;;;;5054801;27;101632;-77
2023/06/17 14:25:24;;;;;;;9.25;4.20;;;;;;;;;;5056328;27;98280;-78
2023/06/17 14:27:51;;;;;;;7.95;4.03;;;;;;;;;;5056331;27;98787;-77
2023/06/17 14:30:18;;;;;;;8.52;4.00;;;;;;;;;;5055144;27;99648;-77
2023/06/17 14:32:46;;;;;;;9.15;3.85;;;;;;;;;;5056099;27;98075;-77
2023/06/17 14:35:14;;;;;;;7.78;4.30;;;;;;;;;;5061079;27;100818;-77
2023/06/17 14:37:41;;;;;;;7.70;3.95;;;;;;;;;;5061933;27;100963;-77
2023/06/17 14:40:09;;;;;;;8.02;4.00;;;;;;;;;;5047075;27;100515;-77
2023/06/17 14:42:38;;;;;;;8.15;4.13;;;;;;;;;;5068871;27;100032;-77
2023/06/17 14:45:08;;;;;;;7.85;4.03;;;;;;;;;;5054468;27;98944;-77